Time;durP1;ratioP1;P1;durP2;ratioP2;P2;SDS_P1;SDS_P2;PMS_P1;PMS_P2;Temp;Humidity;BMP_temperature;BMP_pressure;BME280_temperature;BME280_humidity;BME280_pressure;Samples;Min_cycle;Max_cycle;Signal;HPM_P1;HPM_P2
2023/06/06 00:01:19;;;;;;;6.15;4.53;;;;;;;14.82;100.00;93396.56;5087256;28;20097;-73
2023/06/06 00:03:46;;;;;;;6.78;4.55;;;;;;;14.80;100.00;93393.41;5087236;28;20048;-73
2023/06/06 00:06:14;;;;;;;6.05;4.32;;;;;;;14.78;100.00;93398.84;5086827;28;20044;-75
2023/06/06 00:08:42;;;;;;;6.75;4.90;;;;;;;14.74;100.00;93389.94;5086929;28;20075;-74
2023/06/06 00:11:09;;;;;;;6.38;4.70;;;;;;;14.72;100.00;93388.59;5087241;28;20468;-74
2023/06/06 00:13:36;;;;;;;6.70;4.80;;;;;;;14.62;100.00;93384.03;5086446;28;20121;-74
2023/06/06 00:16:04;;;;;;;6.70;4.97;;;;;;;14.57;100.00;93388.06;5087029;28;20059;-74
2023/06/06 00:18:32;;;;;;;5.95;4.32;;;;;;;14.59;100.00;93382.69;5087190;28;20048;-74
2023/06/06 00:20:59;;;;;;;6.90;4.65;;;;;;;14.55;100.00;93371.22;5087392;28;20139;-74
2023/06/06 00:23:26;;;;;;;6.70;4.68;;;;;;;14.46;100.00;93363.06;5087043;28;20569;-75
2023/06/06 00:25:53;;;;;;;6.75;4.85;;;;;;;14.45;100.00;93358.09;5087336;28;20105;-74
2023/06/06 00:28:20;;;;;;;6.13;4.03;;;;;;;14.56;100.00;93380.53;5086783;28;20052;-75
2023/06/06 00:30:47;;;;;;;6.82;4.78;;;;;;;14.52;100.00;93374.25;5087017;28;20048;-74
2023/06/06 00:33:14;;;;;;;6.65;5.03;;;;;;;14.54;100.00;93385.16;5086894;28;20566;-74
2023/06/06 00:35:42;;;;;;;5.65;4.43;;;;;;;14.49;100.00;93378.09;5086928;28;20048;-74
2023/06/06 00:38:09;;;;;;;5.97;4.60;;;;;;;14.43;100.00;93387.56;5087232;28;20048;-75
2023/06/06 00:40:36;;;;;;;8.02;4.78;;;;;;;14.38;100.00;93384.06;5087360;28;20040;-74
2023/06/06 00:43:02;;;;;;;7.60;4.82;;;;;;;14.35;100.00;93387.91;5086455;28;20844;-74
2023/06/06 00:45:29;;;;;;;5.80;4.47;;;;;;;14.33;100.00;93389.13;5087033;28;20794;-74
2023/06/06 00:47:56;;;;;;;7.28;4.80;;;;;;;14.30;100.00;93388.59;5087011;28;20085;-74
2023/06/06 00:50:24;;;;;;;7.25;5.22;;;;;;;14.25;100.00;93387.69;5086742;28;20047;-74
2023/06/06 00:52:54;;;;;;;6.68;4.57;;;;;;;14.22;100.00;93386.38;5086998;28;21003;-74
2023/06/06 00:55:22;;;;;;;6.10;4.35;;;;;;;14.19;100.00;93391.19;5086404;28;20500;-74
2023/06/06 00:57:51;;;;;;;7.18;5.15;;;;;;;14.17;100.00;93391.44;5086526;28;20467;-74
2023/06/06 01:00:18;;;;;;;8.07;5.10;;;;;;;14.07;100.00;93378.31;5086817;28;20040;-74
2023/06/06 01:02:47;;;;;;;6.40;4.60;;;;;;;14.10;100.00;93388.97;5086708;28;20123;-74
2023/06/06 01:05:18;;;;;;;7.60;4.95;;;;;;;14.09;100.00;93397.72;5086059;28;20043;-75
2023/06/06 01:07:47;;;;;;;5.63;4.22;;;;;;;14.09;100.00;93389.97;5086580;28;20044;-74
2023/06/06 01:10:16;;;;;;;5.72;4.13;;;;;;;14.07;100.00;93393.81;5086387;28;20548;-77
2023/06/06 01:12:49;;;;;;;7.43;5.25;;;;;;;14.03;100.00;93393.47;5086329;28;20146;-73
2023/06/06 01:15:22;;;;;;;6.70;4.63;;;;;;;14.02;100.00;93399.63;5086704;28;20063;-73
2023/06/06 01:17:50;;;;;;;8.15;4.97;;;;;;;13.87;100.00;93382.81;5086712;28;20059;-73
2023/06/06 01:20:19;;;;;;;6.10;4.35;;;;;;;13.91;100.00;93403.78;5090166;28;20052;-74
2023/06/06 01:22:48;;;;;;;6.57;5.10;;;;;;;13.89;100.00;93405.81;5090323;28;20583;-74
2023/06/06 01:25:19;;;;;;;7.32;4.97;;;;;;;13.83;100.00;93402.34;5089783;28;20492;-74
2023/06/06 01:27:46;;;;;;;5.55;4.50;;;;;;;13.85;100.00;93399.53;5090069;28;20048;-74
2023/06/06 01:30:13;;;;;;;6.22;4.70;;;;;;;13.80;100.00;93404.59;5090240;28;20051;-74
2023/06/06 01:32:49;;;;;;;8.23;5.22;;;;;;;13.79;100.00;93405.59;5089877;28;20048;-74
2023/06/06 01:35:24;;;;;;;6.85;4.85;;;;;;;13.62;100.00;93390.78;5089782;28;20500;-74
2023/06/06 01:38:00;;;;;;;5.30;4.03;;;;;;;13.68;100.00;93400.19;5083542;28;20056;-74
2023/06/06 01:40:31;;;;;;;6.13;4.68;;;;;;;13.66;100.00;93404.78;5080924;28;20047;-74
2023/06/06 01:42:58;;;;;;;6.85;4.40;;;;;;;13.62;100.00;93406.25;5089801;28;20040;-74
2023/06/06 01:45:30;;;;;;;5.63;4.22;;;;;;;13.55;100.00;93408.94;5088953;28;20559;-74
2023/06/06 01:47:57;;;;;;;5.85;4.10;;;;;;;13.51;100.00;93401.88;5089982;28;20043;-74
2023/06/06 01:50:24;;;;;;;5.90;4.35;;;;;;;13.47;100.00;93404.88;5089271;28;20044;-74
2023/06/06 01:52:54;;;;;;;6.50;4.50;;;;;;;13.38;100.00;93411.34;5089531;28;20082;-74
2023/06/06 01:55:21;;;;;;;5.80;3.88;;;;;;;13.37;100.00;93407.19;5089183;28;20048;-74
2023/06/06 01:57:48;;;;;;;7.18;4.13;;;;;;;13.28;100.00;93406.72;5088891;28;20044;-74
2023/06/06 02:00:16;;;;;;;7.05;4.20;;;;;;;13.27;100.00;93406.94;5089305;28;20056;-74
2023/06/06 02:02:43;;;;;;;6.22;3.85;;;;;;;13.27;100.00;93410.31;5089421;28;20382;-74
2023/06/06 02:05:11;;;;;;;6.65;3.78;;;;;;;13.26;100.00;93413.13;5089228;28;20094;-73
2023/06/06 02:07:38;;;;;;;7.80;3.40;;;;;;;13.21;100.00;93413.78;5089457;28;20055;-73
2023/06/06 02:10:06;;;;;;;6.95;4.10;;;;;;;13.23;100.00;93411.75;5089261;28;20081;-73
2023/06/06 02:12:34;;;;;;;5.90;3.97;;;;;;;13.04;100.00;93388.63;5089306;28;20059;-73
2023/06/06 02:15:02;;;;;;;6.13;4.00;;;;;;;13.13;100.00;93404.56;5088849;28;20047;-73
2023/06/06 02:17:30;;;;;;;6.63;3.67;;;;;;;13.14;100.00;93419.03;5088729;28;20052;-73
2023/06/06 02:19:57;;;;;;;5.25;3.90;;;;;;;13.12;100.00;93418.47;5089187;28;20039;-73
2023/06/06 02:22:24;;;;;;;4.50;3.10;;;;;;;13.12;100.00;93422.84;5088859;28;20121;-73
2023/06/06 02:24:52;;;;;;;5.90;3.22;;;;;;;13.14;100.00;93423.41;5088727;28;20051;-73
2023/06/06 02:27:21;;;;;;;5.25;3.65;;;;;;;13.08;100.00;93423.28;5088780;28;20063;-73
2023/06/06 02:29:48;;;;;;;7.22;4.43;;;;;;;13.08;100.00;93422.50;5088643;28;20095;-73
2023/06/06 02:32:15;;;;;;;7.68;4.68;;;;;;;13.06;100.00;93429.69;5088714;28;20052;-73
2023/06/06 02:34:42;;;;;;;5.05;3.85;;;;;;;13.00;100.00;93423.59;5088964;28;20559;-73
2023/06/06 02:37:09;;;;;;;6.28;3.83;;;;;;;13.03;100.00;93430.91;5088781;28;20163;-73
2023/06/06 02:39:36;;;;;;;6.13;4.50;;;;;;;12.99;100.00;93434.13;5088816;28;20048;-73
2023/06/06 02:42:03;;;;;;;5.38;4.05;;;;;;;12.94;100.00;93435.56;5088611;28;20055;-73
2023/06/06 02:44:32;;;;;;;5.35;3.60;;;;;;;12.90;100.00;93437.00;5089001;28;20110;-73
2023/06/06 02:46:59;;;;;;;5.57;3.72;;;;;;;12.86;100.00;93435.09;5088139;28;20055;-73
2023/06/06 02:49:28;;;;;;;6.70;3.97;;;;;;;12.83;100.00;93438.91;5079829;28;20429;-73
2023/06/06 02:51:55;;;;;;;7.20;3.88;;;;;;;12.83;100.00;93441.47;5084015;28;20500;-73
2023/06/06 02:54:22;;;;;;;6.57;3.60;;;;;;;12.77;100.00;93434.59;5081040;28;20191;-73
2023/06/06 02:56:49;;;;;;;5.10;3.78;;;;;;;12.79;100.00;93442.91;5068329;28;20040;-73
2023/06/06 02:59:15;;;;;;;4.80;4.15;;;;;;;12.78;100.00;93438.75;5067977;28;20535;-73
2023/06/06 03:01:47;;;;;;;6.90;3.78;;;;;;;12.75;100.00;93434.81;5067630;28;20041;-73
2023/06/06 03:04:15;;;;;;;6.07;4.40;;;;;;;12.77;100.00;93447.50;5067795;28;20129;-74
2023/06/06 03:06:42;;;;;;;6.90;4.28;;;;;;;12.66;100.00;93431.75;5068136;28;20119;-74
2023/06/06 03:09:10;;;;;;;7.00;4.20;;;;;;;12.61;100.00;93420.50;5068943;28;20064;-73
2023/06/06 03:11:37;;;;;;;6.25;4.57;;;;;;;12.75;100.00;93447.72;5067423;28;20057;-74
2023/06/06 03:14:04;;;;;;;7.22;4.95;;;;;;;12.80;100.00;93447.84;5067224;28;20048;-73
2023/06/06 03:16:34;;;;;;;7.03;4.47;;;;;;;12.81;100.00;93453.78;5067369;28;20044;-74
2023/06/06 03:19:03;;;;;;;5.03;3.45;;;;;;;12.81;100.00;93452.00;5066975;28;20489;-73
2023/06/06 03:21:30;;;;;;;6.25;4.47;;;;;;;12.85;100.00;93444.59;5067368;28;20041;-73
2023/06/06 03:23:57;;;;;;;6.10;4.10;;;;;;;12.90;100.00;93449.91;5066587;28;20048;-73
2023/06/06 03:26:26;;;;;;;6.60;4.38;;;;;;;12.94;100.00;93450.25;5066933;28;20094;-73
2023/06/06 03:28:53;;;;;;;7.88;4.65;;;;;;;13.02;100.00;93451.75;5067220;28;20044;-73
2023/06/06 03:31:23;;;;;;;9.43;5.40;;;;;;;13.02;100.00;93444.00;5067198;28;20121;-73
2023/06/06 03:33:50;;;;;;;10.45;5.65;;;;;;;13.14;100.00;93452.56;5067153;28;20047;-73
2023/06/06 03:36:19;;;;;;;4.68;3.70;;;;;;;13.20;100.00;93448.34;5070921;28;20056;-73
2023/06/06 03:38:46;;;;;;;5.80;3.28;;;;;;;13.26;100.00;93449.22;5067104;28;20049;-73
2023/06/06 03:41:13;;;;;;;6.50;3.33;;;;;;;13.27;100.00;93441.28;5066434;28;20052;-74
2023/06/06 03:43:42;;;;;;;6.65;3.20;;;;;;;13.32;100.00;93448.34;5067216;28;20048;-74
2023/06/06 03:46:09;;;;;;;6.32;3.38;;;;;;;13.37;100.00;93445.91;5068600;28;20151;-73
2023/06/06 03:48:36;;;;;;;4.45;2.95;;;;;;;13.43;100.00;93454.56;5067155;28;20048;-73
2023/06/06 03:51:03;;;;;;;10.07;4.38;;;;;;;13.39;100.00;93438.75;5066709;28;20055;-74
2023/06/06 03:53:31;;;;;;;5.80;3.83;;;;;;;13.52;100.00;93452.47;5067160;28;20041;-74
2023/06/06 03:55:59;;;;;;;12.52;4.80;;;;;;;13.54;100.00;93434.97;5066955;28;20041;-74
2023/06/06 03:58:26;;;;;;;8.55;4.32;;;;;;;13.70;100.00;93442.06;5066713;28;20113;-74
2023/06/06 04:00:52;;;;;;;6.50;4.18;;;;;;;13.71;100.00;93442.84;5066594;28;20133;-74
2023/06/06 04:03:19;;;;;;;7.38;5.43;;;;;;;13.82;100.00;93443.88;5066896;28;20040;-74
2023/06/06 04:05:48;;;;;;;6.25;4.30;;;;;;;13.88;100.00;93441.19;5066543;28;20389;-74
2023/06/06 04:08:15;;;;;;;5.25;3.85;;;;;;;13.87;100.00;93433.66;5066377;28;20140;-74
2023/06/06 04:10:43;;;;;;;6.45;4.90;;;;;;;14.01;100.00;93442.75;5066662;28;20048;-74
2023/06/06 04:13:10;;;;;;;8.65;6.65;;;;;;;14.07;100.00;93440.28;5066603;28;20052;-74
2023/06/06 04:15:37;;;;;;;10.10;7.20;;;;;;;14.12;100.00;93436.00;5066905;28;20064;-74
2023/06/06 04:18:05;;;;;;;8.10;6.03;;;;;;;14.22;100.00;93437.25;5066557;28;20056;-74
2023/06/06 04:20:32;;;;;;;7.13;5.20;;;;;;;14.34;100.00;93425.09;5066256;28;20136;-74
2023/06/06 04:23:01;;;;;;;7.38;5.00;;;;;;;14.50;100.00;93433.16;5066252;28;20128;-75
2023/06/06 04:25:27;;;;;;;9.60;5.25;;;;;;;14.59;100.00;93431.00;5066443;28;20132;-74
2023/06/06 04:27:56;;;;;;;4.95;4.00;;;;;;;14.69;100.00;93436.38;5066429;28;20393;-74
2023/06/06 04:30:23;;;;;;;5.63;4.38;;;;;;;14.77;100.00;93422.31;5070052;28;20044;-74
2023/06/06 04:32:50;;;;;;;5.43;3.55;;;;;;;14.90;100.00;93437.56;5066412;28;20500;-73
2023/06/06 04:35:18;;;;;;;6.07;3.22;;;;;;;15.00;100.00;93428.44;5066410;28;20056;-74
2023/06/06 04:37:47;;;;;;;7.15;4.57;;;;;;;15.02;100.00;93434.16;5066811;28;20040;-74
2023/06/06 04:40:15;;;;;;;5.65;3.40;;;;;;;15.07;100.00;93423.88;5066434;28;20056;-74
2023/06/06 04:42:42;;;;;;;5.13;2.97;;;;;;;15.18;100.00;93430.03;5066385;28;20148;-73
2023/06/06 04:45:11;;;;;;;4.50;2.70;;;;;;;15.16;100.00;93422.50;5066607;28;20056;-73
2023/06/06 04:47:41;;;;;;;3.95;2.55;;;;;;;14.98;100.00;93441.59;5068369;28;20044;-73
2023/06/06 04:50:09;;;;;;;4.30;2.55;;;;;;;15.01;100.00;93437.75;5070077;28;20084;-73
2023/06/06 04:52:35;;;;;;;4.22;2.67;;;;;;;15.11;100.00;93437.94;5067702;28;20151;-73
2023/06/06 04:55:03;;;;;;;4.63;2.70;;;;;;;15.26;100.00;93436.63;5070287;28;20055;-74
2023/06/06 04:57:30;;;;;;;3.35;2.65;;;;;;;15.17;100.00;93437.00;5070316;28;21636;-74
2023/06/06 04:59:57;;;;;;;4.05;2.40;;;;;;;15.27;100.00;93441.56;5070492;28;20142;-74
2023/06/06 05:02:28;;;;;;;4.57;2.85;;;;;;;15.29;100.00;93441.34;5069892;28;20050;-74
2023/06/06 05:04:57;;;;;;;5.65;3.03;;;;;;;15.33;100.00;93434.69;5069801;28;20044;-74
2023/06/06 05:07:24;;;;;;;3.72;2.17;;;;;;;15.40;100.00;93448.25;5069601;28;20096;-74
2023/06/06 05:09:51;;;;;;;4.43;1.90;;;;;;;15.56;100.00;93451.88;5069883;28;20099;-73
2023/06/06 05:12:18;;;;;;;3.13;1.90;;;;;;;15.50;100.00;93448.44;5069691;28;20052;-74
2023/06/06 05:14:45;;;;;;;3.65;2.22;;;;;;;15.41;100.00;93444.66;5069595;28;20102;-74
2023/06/06 05:17:17;;;;;;;2.97;1.77;;;;;;;15.57;100.00;93445.69;5069605;28;20055;-74
2023/06/06 05:19:46;;;;;;;3.15;1.90;;;;;;;15.64;100.00;93455.88;5069149;28;20045;-74
2023/06/06 05:22:14;;;;;;;3.63;2.33;;;;;;;15.67;100.00;93445.06;5069629;28;20469;-73
2023/06/06 05:24:41;;;;;;;2.75;1.77;;;;;;;15.80;100.00;93448.34;5069532;28;20044;-74
2023/06/06 05:27:08;;;;;;;4.90;2.25;;;;;;;15.77;100.00;93447.81;5069285;28;20047;-73
2023/06/06 05:29:35;;;;;;;4.78;1.92;;;;;;;15.88;100.00;93451.34;5069179;28;20040;-73
2023/06/06 05:32:02;;;;;;;3.88;2.13;;;;;;;15.99;100.00;93443.75;5069373;28;20090;-74
2023/06/06 05:34:29;;;;;;;4.05;2.42;;;;;;;16.08;100.00;93439.75;5069043;28;20045;-74
2023/06/06 05:36:57;;;;;;;5.00;2.60;;;;;;;16.34;100.00;93449.66;5068844;28;20040;-74
2023/06/06 05:39:24;;;;;;;3.15;2.15;;;;;;;16.40;100.00;93446.88;5069497;28;20049;-74
2023/06/06 05:41:54;;;;;;;4.47;3.00;;;;;;;16.60;100.00;93449.97;5069444;28;20095;-74
2023/06/06 05:44:21;;;;;;;7.13;2.90;;;;;;;16.84;100.00;93458.28;5068924;28;20056;-74
2023/06/06 05:46:53;;;;;;;3.45;2.30;;;;;;;17.04;100.00;93455.16;5070937;28;20053;-74
2023/06/06 05:49:20;;;;;;;5.70;2.67;;;;;;;17.12;100.00;93460.97;5069244;28;20044;-74
2023/06/06 05:51:46;;;;;;;3.55;2.28;;;;;;;17.38;100.00;93453.41;5069182;28;20082;-74
2023/06/06 05:54:15;;;;;;;5.47;2.28;;;;;;;17.48;100.00;93456.91;5069109;28;20053;-74
2023/06/06 05:56:42;;;;;;;4.63;2.22;;;;;;;17.61;100.00;93454.91;5068803;28;20055;-74
2023/06/06 05:59:09;;;;;;;5.20;3.13;;;;;;;17.83;100.00;93451.47;5068715;28;20127;-74
2023/06/06 06:01:39;;;;;;;6.40;2.80;;;;;;;18.02;100.00;93454.44;5068606;28;20413;-74
2023/06/06 06:04:07;;;;;;;21.60;11.93;;;;;;;18.29;100.00;93451.78;5068274;28;20048;-74
2023/06/06 06:06:35;;;;;;;12.63;6.47;;;;;;;18.50;100.00;93451.09;5068648;28;20151;-74
2023/06/06 06:09:03;;;;;;;20.15;3.38;;;;;;;18.67;100.00;93443.91;5068579;28;20421;-75
2023/06/06 06:11:32;;;;;;;11.30;4.68;;;;;;;18.97;100.00;93452.06;5068353;28;20540;-74
2023/06/06 06:13:58;;;;;;;9.50;5.57;;;;;;;19.18;100.00;93449.53;5068365;28;20063;-74
2023/06/06 06:16:25;;;;;;;7.68;4.22;;;;;;;19.34;100.00;93445.94;5068154;28;20048;-74
2023/06/06 06:18:52;;;;;;;5.47;3.65;;;;;;;19.59;100.00;93449.59;5068012;28;20051;-75
2023/06/06 06:21:19;;;;;;;7.30;3.47;;;;;;;19.45;100.00;93440.75;5077779;28;20097;-75
2023/06/06 06:23:46;;;;;;;11.65;4.43;;;;;;;19.08;100.00;93455.53;5089078;28;20054;-75
2023/06/06 06:26:13;;;;;;;14.75;4.78;;;;;;;19.32;100.00;93455.03;5089044;28;20051;-75
2023/06/06 06:28:41;;;;;;;8.48;5.13;;;;;;;19.63;100.00;93453.25;5089101;28;20048;-75
2023/06/06 06:31:08;;;;;;;10.70;4.82;;;;;;;19.62;100.00;93456.91;5088596;28;20093;-74
2023/06/06 06:33:34;;;;;;;12.07;4.82;;;;;;;19.90;100.00;93452.19;5088426;28;20043;-75
2023/06/06 06:36:02;;;;;;;17.45;5.75;;;;;;;19.41;100.00;93453.50;5088627;28;20052;-75
2023/06/06 06:38:28;;;;;;;15.70;5.57;;;;;;;19.18;100.00;93454.75;5088522;28;20040;-75
2023/06/06 06:40:55;;;;;;;13.43;5.95;;;;;;;19.50;100.00;93449.31;5088150;28;20048;-75
2023/06/06 06:43:22;;;;;;;14.73;5.55;;;;;;;19.89;100.00;93453.25;5074439;28;20047;-74
2023/06/06 06:45:50;;;;;;;12.32;4.57;;;;;;;19.42;100.00;93451.66;5085755;28;20049;-74
2023/06/06 06:48:17;;;;;;;14.95;6.45;;;;;;;19.46;100.00;93450.13;5088323;28;20447;-75
2023/06/06 06:50:45;;;;;;;14.25;5.80;;;;;;;19.06;100.00;93457.56;5088465;28;20058;-75
2023/06/06 06:53:13;;;;;;;22.13;7.18;;;;;;;18.75;100.00;93449.66;5088513;28;20892;-75
2023/06/06 06:55:41;;;;;;;19.05;7.07;;;;;;;19.26;100.00;93458.69;5088231;28;20412;-75
2023/06/06 06:58:07;;;;;;;22.45;7.97;;;;;;;18.96;100.00;93456.50;5088343;28;20051;-75
2023/06/06 07:00:34;;;;;;;20.58;5.47;;;;;;;19.42;100.00;93460.28;5087511;28;20098;-75
2023/06/06 07:03:03;;;;;;;17.63;4.72;;;;;;;19.94;100.00;93455.06;5088201;28;20048;-74
2023/06/06 07:05:30;;;;;;;15.40;5.00;;;;;;;20.34;100.00;93449.28;5084526;28;20089;-75
2023/06/06 07:07:58;;;;;;;15.13;5.60;;;;;;;20.76;99.63;93457.78;5077933;28;20047;-75
2023/06/06 07:10:26;;;;;;;16.35;5.82;;;;;;;20.93;93.53;93447.03;5085323;28;20047;-75
2023/06/06 07:12:53;;;;;;;18.58;5.80;;;;;;;21.15;92.47;93458.94;5077037;28;20040;-74
2023/06/06 07:15:21;;;;;;;12.55;4.55;;;;;;;21.47;89.47;93463.72;5086876;28;20048;-75
2023/06/06 07:17:49;;;;;;;16.30;4.90;;;;;;;21.79;87.41;93456.47;5087693;28;20545;-75
2023/06/06 07:20:18;;;;;;;12.57;4.68;;;;;;;21.57;85.79;93452.41;5087848;28;20052;-75
2023/06/06 07:22:45;;;;;;;16.27;6.35;;;;;;;21.23;87.39;93467.00;5088162;28;20052;-75
2023/06/06 07:25:12;;;;;;;19.02;6.60;;;;;;;21.38;85.90;93457.50;5087676;28;20551;-75
2023/06/06 07:27:39;;;;;;;19.00;6.05;;;;;;;21.56;89.29;93439.63;5087895;28;20857;-75
2023/06/06 07:30:12;;;;;;;19.75;5.57;;;;;;;21.71;87.13;93462.28;5077258;28;20044;-75
2023/06/06 07:32:41;;;;;;;12.77;4.88;;;;;;;21.53;86.25;93461.88;5082525;28;20058;-75
2023/06/06 07:35:09;;;;;;;13.68;4.32;;;;;;;21.39;89.94;93450.44;5087546;28;20431;-75
2023/06/06 07:37:38;;;;;;;13.82;5.45;;;;;;;21.23;87.57;93442.69;5087472;28;20047;-75
2023/06/06 07:40:07;;;;;;;11.82;4.88;;;;;;;21.72;93.51;93461.22;5087542;28;20782;-75
2023/06/06 07:42:34;;;;;;;11.27;4.85;;;;;;;22.10;92.22;93468.50;5087181;28;20040;-75
2023/06/06 07:45:01;;;;;;;13.65;5.40;;;;;;;22.27;86.39;93471.47;5087430;28;20082;-75
2023/06/06 07:47:28;;;;;;;14.57;4.68;;;;;;;22.11;86.68;93472.66;5087376;28;20048;-75
2023/06/06 07:49:55;;;;;;;15.85;4.53;;;;;;;22.00;86.77;93470.13;5087201;28;20519;-75
2023/06/06 07:52:22;;;;;;;12.77;5.78;;;;;;;22.05;88.19;93468.53;5087202;28;20333;-75
2023/06/06 07:54:50;;;;;;;11.55;5.35;;;;;;;22.29;84.10;93469.38;5087460;28;20040;-75
2023/06/06 07:57:17;;;;;;;11.13;3.42;;;;;;;22.46;86.87;93467.38;5086447;28;20040;-75
2023/06/06 07:59:45;;;;;;;8.52;3.50;;;;;;;22.14;86.83;93459.81;5087351;28;20549;-75
2023/06/06 08:02:14;;;;;;;7.47;3.38;;;;;;;22.42;83.26;93464.53;5086713;28;20047;-75
2023/06/06 08:04:42;;;;;;;9.07;4.32;;;;;;;22.37;85.50;93457.53;5087035;28;20067;-76
2023/06/06 08:07:09;;;;;;;9.48;4.80;;;;;;;21.20;87.45;93459.69;5086990;28;20314;-75
2023/06/06 08:09:37;;;;;;;15.75;4.68;;;;;;;21.47;88.88;93465.53;5087588;28;20056;-76
2023/06/06 08:12:06;;;;;;;7.68;4.10;;;;;;;21.75;87.88;93451.00;5086833;28;20055;-76
2023/06/06 08:14:35;;;;;;;14.30;5.05;;;;;;;21.83;88.71;93452.25;5086983;28;20478;-76
2023/06/06 08:17:02;;;;;;;11.80;4.35;;;;;;;22.16;83.38;93465.56;5087071;28;20052;-75
2023/06/06 08:19:29;;;;;;;8.93;4.15;;;;;;;22.65;88.13;93457.00;5087287;28;20048;-75
2023/06/06 08:21:56;;;;;;;9.15;3.33;;;;;;;22.50;84.87;93458.69;5087204;28;21279;-76
2023/06/06 08:24:23;;;;;;;12.40;4.18;;;;;;;22.62;85.21;93450.47;5087062;28;20059;-75
2023/06/06 08:26:49;;;;;;;10.35;5.05;;;;;;;22.89;86.58;93459.59;5086813;28;20044;-75
2023/06/06 08:29:18;;;;;;;10.52;3.30;;;;;;;23.55;87.23;93453.00;5091530;28;20081;-75
2023/06/06 08:31:45;;;;;;;6.68;3.30;;;;;;;23.91;80.18;93460.28;5091084;28;20548;-75
2023/06/06 08:34:12;;;;;;;8.10;3.60;;;;;;;24.25;84.40;93448.72;5091200;28;20056;-74
2023/06/06 08:36:39;;;;;;;7.53;3.33;;;;;;;23.83;78.69;93458.34;5091125;28;20488;-75
2023/06/06 08:39:06;;;;;;;7.97;3.35;;;;;;;24.14;83.78;93449.97;5091024;28;20123;-75
2023/06/06 08:41:34;;;;;;;6.07;2.80;;;;;;;24.05;77.30;93456.91;5090624;28;20496;-75
2023/06/06 08:44:02;;;;;;;6.75;2.80;;;;;;;24.60;81.06;93448.38;5075645;28;20041;-74
2023/06/06 08:46:33;;;;;;;5.88;2.40;;;;;;;25.06;79.77;93433.56;5088714;28;20056;-74
2023/06/06 08:49:03;;;;;;;8.02;2.55;;;;;;;25.50;76.29;93438.38;5090917;28;20068;-74
2023/06/06 08:51:30;;;;;;;4.65;2.33;;;;;;;25.59;73.27;93435.88;5090917;28;20055;-75
2023/06/06 08:53:59;;;;;;;4.00;2.58;;;;;;;25.53;69.87;93437.00;5090792;28;20036;-74
2023/06/06 08:56:26;;;;;;;6.50;3.35;;;;;;;25.20;72.39;93402.00;5090379;28;20047;-75
2023/06/06 08:58:54;;;;;;;5.43;2.72;;;;;;;25.96;76.38;93423.41;5090307;28;20051;-74
2023/06/06 09:01:21;;;;;;;9.60;2.75;;;;;;;26.34;74.60;93418.81;5090287;28;20063;-74
2023/06/06 09:03:53;;;;;;;5.22;2.42;;;;;;;26.64;69.87;93421.69;5090871;28;20109;-74
2023/06/06 09:06:21;;;;;;;6.32;2.63;;;;;;;26.76;69.93;93405.28;5090479;28;20522;-74
2023/06/06 09:08:48;;;;;;;5.35;1.90;;;;;;;27.11;72.45;93420.41;5090689;28;20153;-74
2023/06/06 09:11:16;;;;;;;5.32;2.47;;;;;;;25.97;68.35;93417.06;5090092;28;20067;-75
2023/06/06 09:13:43;;;;;;;5.88;2.33;;;;;;;26.00;71.21;93392.78;5077247;28;20040;-75
2023/06/06 09:16:10;;;;;;;6.00;2.70;;;;;;;26.41;69.66;93413.88;5090260;28;20081;-75
2023/06/06 09:18:38;;;;;;;6.10;2.50;;;;;;;26.55;68.05;93390.06;5090508;28;20040;-74
2023/06/06 09:21:06;;;;;;;4.07;2.42;;;;;;;25.89;67.08;93415.91;5089855;28;20066;-74
2023/06/06 09:23:33;;;;;;;5.60;1.98;;;;;;;26.28;70.32;93413.66;5090309;28;20036;-74
2023/06/06 09:26:00;;;;;;;6.72;2.40;;;;;;;26.40;66.91;93412.31;5092297;28;20040;-74
2023/06/06 09:28:37;;;;;;;5.72;2.85;;;;;;;26.57;67.16;93408.19;5089864;28;20043;-75
2023/06/06 09:31:23;;;;;;;5.15;2.97;;;;;;;26.08;67.45;93404.44;5090148;28;20452;-75
2023/06/06 09:33:50;;;;;;;5.10;2.20;;;;;;;26.49;69.31;93399.97;5089803;28;20093;-74
2023/06/06 09:36:21;;;;;;;3.22;2.17;;;;;;;26.23;68.91;93390.09;5089751;28;20044;-74
2023/06/06 09:38:49;;;;;;;6.00;2.42;;;;;;;25.80;68.90;93378.28;5088340;28;20561;-74
2023/06/06 09:41:15;;;;;;;3.78;2.10;;;;;;;26.52;70.37;93388.03;5089618;28;20097;-75
2023/06/06 09:43:42;;;;;;;5.80;2.13;;;;;;;27.16;67.92;93386.00;5089927;28;20102;-75
2023/06/06 09:46:09;;;;;;;4.32;2.58;;;;;;;26.72;62.83;93391.19;5089304;28;20060;-75
2023/06/06 09:48:36;;;;;;;4.45;2.65;;;;;;;26.10;67.17;93389.09;5089681;28;20067;-76
2023/06/06 09:51:03;;;;;;;4.47;2.40;;;;;;;25.30;70.46;93390.47;5089576;28;20047;-76
2023/06/06 09:53:32;;;;;;;3.78;2.28;;;;;;;25.55;73.55;93385.69;5089426;28;20466;-76
2023/06/06 09:56:04;;;;;;;3.72;2.20;;;;;;;25.65;71.42;93373.38;5089131;28;20047;-76
2023/06/06 09:58:32;;;;;;;5.50;2.40;;;;;;;24.67;70.39;93382.31;5089123;28;20044;-76
2023/06/06 10:01:01;;;;;;;3.33;2.15;;;;;;;24.92;71.46;93361.88;5089719;28;20411;-75
2023/06/06 10:03:30;;;;;;;4.78;2.63;;;;;;;25.03;70.71;93376.34;5089499;28;20485;-75
2023/06/06 10:05:57;;;;;;;3.38;1.85;;;;;;;24.98;70.83;93373.81;5089582;28;20072;-76
2023/06/06 10:08:24;;;;;;;4.43;2.50;;;;;;;24.30;72.14;93374.34;5089045;28;20105;-76
2023/06/06 10:10:52;;;;;;;2.97;1.73;;;;;;;23.87;71.19;93375.38;5088263;28;20048;-76
2023/06/06 10:13:21;;;;;;;3.83;1.80;;;;;;;24.48;72.75;93370.06;5088960;28;20504;-75
2023/06/06 10:15:49;;;;;;;6.28;2.53;;;;;;;23.88;69.26;93372.47;5088956;28;20125;-76
2023/06/06 10:18:17;;;;;;;3.47;1.80;;;;;;;24.44;72.46;93366.47;5088656;28;20043;-76
2023/06/06 10:20:46;;;;;;;2.40;1.70;;;;;;;24.85;68.93;93366.75;5088860;28;20044;-75
2023/06/06 10:23:13;;;;;;;7.75;3.35;;;;;;;24.99;67.21;93374.59;5088346;28;20048;-75
2023/06/06 10:25:40;;;;;;;3.72;2.20;;;;;;;25.42;66.83;93365.50;5088888;28;20097;-74
2023/06/06 10:28:15;;;;;;;4.20;2.35;;;;;;;25.60;66.79;93355.88;5088816;28;20048;-74
2023/06/06 10:30:54;;;;;;;3.25;1.80;;;;;;;24.81;63.29;93364.72;5089437;28;20550;-76
2023/06/06 10:33:32;;;;;;;5.57;3.00;;;;;;;24.64;64.10;93362.69;5088929;28;20105;-75
2023/06/06 10:36:06;;;;;;;3.90;2.40;;;;;;;25.06;66.49;93357.34;5088517;28;20127;-75
2023/06/06 10:38:34;;;;;;;3.08;1.95;;;;;;;25.42;65.38;93357.59;5088338;28;20105;-75
2023/06/06 10:41:01;;;;;;;4.22;1.80;;;;;;;26.01;65.78;93354.09;5088212;28;20123;-75
2023/06/06 10:43:54;;;;;;;2.97;1.85;;;;;;;26.40;64.72;93349.91;5075135;28;20491;-75
2023/06/06 10:46:21;;;;;;;2.65;1.80;;;;;;;26.10;63.12;93339.09;5087452;28;20055;-75
2023/06/06 10:48:56;;;;;;;4.75;1.80;;;;;;;25.93;63.78;93342.44;5075180;28;20414;-75
2023/06/06 10:51:31;;;;;;;2.28;1.58;;;;;;;26.03;65.14;93341.38;5074477;28;20044;-75
2023/06/06 10:54:20;;;;;;;2.50;1.60;;;;;;;25.29;63.31;93335.53;5086674;28;20040;-75
2023/06/06 10:56:52;;;;;;;3.88;1.55;;;;;;;25.21;65.76;93321.25;5087877;28;20434;-75
2023/06/06 10:59:26;;;;;;;2.42;1.50;;;;;;;25.09;61.82;93327.06;5075623;28;20048;-75
2023/06/06 11:01:54;;;;;;;5.00;1.65;;;;;;;25.07;61.32;93329.22;5087893;28;20036;-76
2023/06/06 11:04:22;;;;;;;2.15;1.45;;;;;;;24.80;64.17;93320.31;5088375;28;20047;-76
2023/06/06 11:06:51;;;;;;;5.22;1.58;;;;;;;25.13;63.79;93324.63;5087728;28;20050;-75
2023/06/06 11:09:20;;;;;;;4.43;1.90;;;;;;;25.44;62.06;93319.41;5087833;28;20412;-75
2023/06/06 11:11:47;;;;;;;3.05;1.33;;;;;;;25.56;61.46;93318.91;5073953;28;20122;-76
2023/06/06 11:14:14;;;;;;;2.35;1.13;;;;;;;24.94;62.75;93313.19;5078305;28;20044;-76
2023/06/06 11:17:01;;;;;;;2.22;1.30;;;;;;;24.36;65.74;93304.97;5087960;28;20044;-76
2023/06/06 11:19:34;;;;;;;2.15;1.20;;;;;;;24.12;66.48;93300.69;5087451;28;20549;-76
2023/06/06 11:22:02;;;;;;;3.90;1.20;;;;;;;24.15;66.97;93313.22;5087550;28;20066;-75
2023/06/06 11:24:35;;;;;;;3.50;1.55;;;;;;;23.65;67.95;93310.47;5087794;28;20068;-75
2023/06/06 11:27:02;;;;;;;2.92;1.73;;;;;;;23.32;68.78;93308.63;5087678;28;20422;-75
2023/06/06 11:29:31;;;;;;;3.10;1.83;;;;;;;23.18;68.39;93295.44;5087784;28;20480;-74
2023/06/06 11:31:58;;;;;;;3.03;1.92;;;;;;;23.80;69.66;93291.03;5086106;28;20112;-75